createdAt,value
2022-12-19T00:03:50.120Z,46.80
2022-12-19T00:08:49.964Z,46.80
2022-12-19T00:13:50.077Z,36.80
2022-12-19T00:18:50.081Z,36.80
2022-12-19T00:23:49.978Z,43.10
2022-12-19T00:28:50.186Z,43.10
2022-12-19T00:33:49.947Z,41.80
2022-12-19T00:43:50.003Z,43.20
2022-12-19T00:48:50.118Z,43.20
2022-12-19T00:53:49.979Z,41.40
2022-12-19T00:58:50.011Z,41.40
2022-12-19T01:04:26.041Z,36.30
2022-12-19T01:08:50.045Z,36.30
2022-12-19T01:13:50.009Z,36.30
2022-12-19T01:18:50.019Z,36.30
2022-12-19T01:23:50.027Z,36.00
2022-12-19T01:28:50.012Z,36.00
2022-12-19T01:33:50.128Z,31.60
2022-12-19T01:38:49.973Z,31.60
2022-12-19T01:43:49.997Z,95.20
2022-12-19T01:48:50.065Z,95.20
2022-12-19T01:53:50.012Z,39.80
2022-12-19T01:58:50.013Z,39.80
2022-12-19T02:03:50.029Z,80.70
2022-12-19T02:08:50.183Z,80.70
2022-12-19T02:13:50.014Z,139.00
2022-12-19T02:18:50.145Z,139.00
2022-12-19T02:23:50.015Z,49.60
2022-12-19T02:28:50.014Z,49.60
2022-12-19T02:33:50.015Z,41.20
2022-12-19T02:38:49.987Z,41.20
2022-12-19T02:43:51.547Z,59.70
2022-12-19T02:48:50.041Z,59.70
2022-12-19T02:53:50.201Z,46.20
2022-12-19T02:58:50.022Z,46.20
2022-12-19T03:03:50.187Z,44.00
2022-12-19T03:08:50.035Z,44.00
2022-12-19T03:13:50.137Z,39.20
2022-12-19T03:18:50.298Z,39.20
2022-12-19T03:23:50.009Z,37.10
2022-12-19T03:28:50.052Z,37.10
2022-12-19T03:33:50.111Z,41.70
2022-12-19T03:38:50.233Z,41.70
2022-12-19T03:43:50.062Z,46.90
2022-12-19T03:48:50.057Z,46.90
2022-12-19T03:53:50.082Z,38.60
2022-12-19T03:58:50.204Z,38.60
2022-12-19T04:03:50.131Z,43.30
2022-12-19T04:08:50.191Z,43.30
2022-12-19T04:13:50.053Z,44.00
2022-12-19T04:18:50.087Z,44.00
2022-12-19T04:23:50.279Z,46.60
2022-12-19T04:28:50.081Z,46.60
2022-12-19T04:33:50.071Z,40.10
2022-12-19T04:43:50.070Z,40.10
2022-12-19T04:48:50.051Z,40.10
2022-12-19T04:53:50.090Z,45.60
2022-12-19T04:58:50.076Z,45.60
2022-12-19T05:03:55.116Z,48.40
2022-12-19T05:08:50.105Z,48.40
2022-12-19T05:13:50.278Z,67.80
2022-12-19T05:18:50.264Z,67.80
2022-12-19T05:23:50.043Z,46.40
2022-12-19T05:28:50.201Z,46.40
2022-12-19T05:33:50.142Z,38.70
2022-12-19T05:43:50.093Z,38.90
2022-12-19T05:48:50.118Z,38.90
2022-12-19T05:53:50.310Z,39.30
2022-12-19T05:58:50.111Z,39.30
2022-12-19T06:03:50.207Z,45.90
2022-12-19T06:08:50.112Z,45.90
2022-12-19T06:13:50.111Z,65.40
2022-12-19T06:18:50.124Z,65.40
2022-12-19T06:23:50.247Z,43.40
2022-12-19T06:28:50.106Z,43.40
2022-12-19T06:33:50.171Z,46.70
2022-12-19T06:38:50.326Z,46.70
2022-12-19T06:43:53.324Z,58.30
2022-12-19T06:48:50.295Z,58.30
2022-12-19T06:53:50.148Z,44.20
2022-12-19T06:58:50.258Z,44.20
2022-12-19T07:03:50.131Z,69.70
2022-12-19T07:08:50.350Z,69.70
2022-12-19T07:13:50.113Z,46.00
2022-12-19T07:18:50.209Z,46.00
2022-12-19T07:23:50.353Z,44.40
2022-12-19T07:28:50.125Z,44.40
2022-12-19T07:33:50.110Z,37.70
2022-12-19T07:38:50.097Z,37.70
2022-12-19T07:43:50.125Z,39.80
2022-12-19T07:53:50.255Z,34.00
2022-12-19T07:58:50.119Z,34.00
2022-12-19T08:03:50.224Z,38.60
2022-12-19T08:08:50.111Z,38.60
2022-12-19T08:13:50.192Z,27.20
2022-12-19T08:18:50.337Z,27.20
2022-12-19T08:23:50.110Z,35.80
2022-12-19T08:28:50.298Z,35.80
2022-12-19T08:33:50.153Z,27.50
2022-12-19T08:38:50.166Z,27.50
2022-12-19T08:43:50.137Z,25.60
2022-12-19T08:48:50.158Z,25.60
2022-12-19T08:53:50.144Z,24.50
2022-12-19T08:58:50.221Z,24.50
2022-12-19T09:04:29.453Z,25.30
2022-12-19T09:08:50.222Z,25.30
2022-12-19T09:13:50.321Z,25.10
2022-12-19T09:18:50.127Z,25.10
2022-12-19T09:23:50.277Z,24.10
2022-12-19T09:28:50.187Z,24.10
2022-12-19T09:33:50.168Z,25.80
2022-12-19T09:38:50.154Z,25.80
2022-12-19T09:43:50.218Z,28.50
2022-12-19T09:48:54.553Z,28.50
2022-12-19T09:53:54.476Z,29.10
2022-12-19T09:58:50.318Z,29.10
2022-12-19T10:03:50.316Z,23.30
2022-12-19T10:09:23.556Z,23.30
2022-12-19T10:13:50.384Z,24.70
2022-12-19T10:18:56.020Z,24.70
2022-12-19T10:23:50.484Z,27.60
2022-12-19T10:28:50.175Z,27.60
2022-12-19T10:33:50.423Z,28.00
2022-12-19T10:38:51.728Z,28.00
2022-12-19T10:43:50.368Z,25.00
2022-12-19T10:48:50.210Z,25.00
2022-12-19T10:53:50.172Z,28.60
2022-12-19T10:58:50.203Z,28.60
2022-12-19T11:03:50.306Z,26.00
2022-12-19T11:08:50.198Z,26.00
2022-12-19T11:18:26.680Z,26.10
2022-12-19T11:29:15.462Z,26.10
2022-12-19T11:30:36.761Z,26.00
2022-12-19T11:30:45.492Z,26.00
2022-12-19T11:38:50.358Z,25.50
2022-12-19T11:43:50.224Z,23.90
2022-12-19T11:48:50.337Z,23.90
2022-12-19T11:53:50.177Z,26.90
2022-12-19T11:58:50.301Z,26.90
2022-12-19T12:04:01.138Z,28.60
2022-12-19T12:13:42.702Z,28.60
2022-12-19T12:21:21.303Z,28.40
2022-12-19T12:31:31.084Z,28.40
2022-12-19T12:31:44.724Z,26.70
2022-12-19T12:31:45.492Z,26.70
2022-12-19T12:35:50.036Z,29.10
2022-12-19T12:38:50.379Z,29.10
2022-12-19T12:43:50.330Z,28.80
2022-12-19T12:53:50.275Z,26.20
2022-12-19T12:58:50.252Z,26.20
2022-12-19T13:03:50.235Z,28.00
2022-12-19T13:08:50.260Z,28.00
2022-12-19T13:13:50.248Z,27.80
2022-12-19T13:18:50.214Z,27.80
2022-12-19T13:23:50.305Z,25.50
2022-12-19T13:28:50.319Z,25.50
2022-12-19T13:33:50.240Z,26.10
2022-12-19T13:40:01.316Z,26.10
2022-12-19T13:43:50.217Z,28.90
2022-12-19T13:48:50.296Z,28.90
2022-12-19T13:53:55.845Z,24.80
2022-12-19T13:58:50.284Z,24.80
2022-12-19T14:03:50.467Z,29.00
2022-12-19T14:09:37.354Z,29.00
2022-12-19T14:14:01.101Z,30.50
2022-12-19T14:18:50.276Z,30.50
2022-12-19T14:23:50.344Z,29.90
2022-12-19T14:28:54.726Z,29.90
2022-12-19T14:34:04.672Z,26.80
2022-12-19T14:39:22.889Z,26.80
2022-12-19T14:43:56.816Z,29.00
2022-12-19T14:54:04.968Z,29.00
2022-12-19T14:54:28.083Z,30.90
2022-12-19T14:58:52.515Z,30.90
2022-12-19T15:04:48.265Z,24.80
2022-12-19T15:09:01.872Z,24.80
2022-12-19T15:14:53.786Z,25.50
2022-12-19T15:18:50.325Z,25.50
2022-12-19T15:23:50.314Z,30.90
2022-12-19T15:28:50.317Z,30.90
2022-12-19T15:34:23.349Z,29.40
2022-12-19T15:38:50.319Z,29.40
2022-12-19T15:44:04.165Z,30.80
2022-12-19T15:48:50.337Z,30.80
2022-12-19T15:53:50.372Z,28.10
2022-12-19T15:58:50.285Z,28.10
2022-12-19T16:03:50.673Z,25.60
2022-12-19T16:08:50.484Z,25.60
2022-12-19T16:13:50.285Z,29.00
2022-12-19T16:18:50.458Z,29.00
2022-12-19T16:23:50.337Z,24.10
2022-12-19T16:28:50.289Z,24.10
2022-12-19T16:33:50.335Z,26.70
2022-12-19T16:38:50.347Z,26.70
2022-12-19T16:43:50.312Z,27.60
2022-12-19T16:48:50.374Z,27.60
2022-12-19T16:53:50.311Z,24.30
2022-12-19T16:58:50.313Z,24.30
2022-12-19T17:03:50.483Z,25.80
2022-12-19T17:08:50.312Z,25.80
2022-12-19T17:13:50.439Z,25.70
2022-12-19T17:18:50.334Z,25.70
2022-12-19T17:23:50.393Z,28.20
2022-12-19T17:28:50.315Z,28.20
2022-12-19T17:33:50.352Z,25.90
2022-12-19T17:38:50.377Z,25.90
2022-12-19T17:43:50.331Z,27.90
2022-12-19T17:48:50.472Z,27.90
2022-12-19T17:53:50.330Z,33.20
2022-12-19T17:58:50.471Z,33.20
2022-12-19T18:03:50.411Z,29.10
2022-12-19T18:08:50.336Z,29.10
2022-12-19T18:13:50.407Z,28.20
2022-12-19T18:18:50.503Z,28.20
2022-12-19T18:23:50.544Z,28.00
2022-12-19T18:28:52.386Z,28.00
2022-12-19T18:33:50.718Z,27.30
2022-12-19T18:38:50.355Z,27.30
2022-12-19T18:43:50.355Z,30.50
2022-12-19T18:48:50.356Z,30.50
2022-12-19T18:53:50.363Z,30.40
2022-12-19T18:58:50.369Z,30.40
2022-12-19T19:03:50.585Z,27.70
2022-12-19T19:08:50.570Z,27.70
2022-12-19T19:13:50.368Z,28.40
2022-12-19T19:18:50.383Z,28.40
2022-12-19T19:23:50.400Z,27.20
2022-12-19T19:28:52.759Z,27.20
2022-12-19T19:33:50.347Z,26.90
2022-12-19T19:38:50.451Z,26.90
2022-12-19T19:43:50.355Z,28.80
2022-12-19T19:48:50.566Z,28.80
2022-12-19T19:53:50.588Z,27.30
2022-12-19T19:58:50.421Z,27.30
2022-12-19T20:03:50.787Z,25.20
2022-12-19T20:08:50.379Z,25.20
2022-12-19T20:13:50.553Z,29.80
2022-12-19T20:18:50.382Z,29.80
2022-12-19T20:23:50.408Z,31.20
2022-12-19T20:28:50.442Z,31.20
2022-12-19T20:33:50.382Z,31.80
2022-12-19T20:38:50.579Z,31.80
2022-12-19T20:43:50.440Z,27.20
2022-12-19T20:48:50.566Z,27.20
2022-12-19T20:53:50.413Z,34.50
2022-12-19T20:58:50.397Z,34.50
2022-12-19T21:03:50.563Z,26.40
2022-12-19T21:08:50.537Z,26.40
2022-12-19T21:13:50.406Z,24.20
2022-12-19T21:18:50.496Z,24.20
2022-12-19T21:23:50.398Z,24.00
2022-12-19T21:28:50.465Z,24.00
2022-12-19T21:33:50.421Z,27.80
2022-12-19T21:38:50.407Z,27.80
2022-12-19T21:43:50.837Z,25.40
2022-12-19T21:48:50.399Z,25.40
2022-12-19T21:53:50.552Z,31.60
2022-12-19T21:58:50.444Z,31.60
2022-12-19T22:03:50.645Z,25.60
2022-12-19T22:08:50.837Z,25.60
2022-12-19T22:13:50.422Z,28.60
2022-12-19T22:18:50.616Z,28.60
2022-12-19T22:23:50.452Z,36.10
2022-12-19T22:28:50.454Z,36.10
2022-12-19T22:33:50.423Z,36.50
2022-12-19T22:38:50.531Z,36.50
2022-12-19T22:43:50.425Z,36.10
2022-12-19T22:48:50.539Z,36.10
2022-12-19T22:53:50.421Z,34.10
2022-12-19T22:58:50.507Z,34.10
2022-12-19T23:03:50.826Z,36.00
2022-12-19T23:08:50.448Z,36.00
2022-12-19T23:13:50.479Z,34.50
2022-12-19T23:18:50.438Z,34.50
2022-12-19T23:28:50.536Z,31.60
2022-12-19T23:33:50.466Z,33.10
2022-12-19T23:38:50.483Z,33.10
2022-12-19T23:43:50.529Z,37.50
2022-12-19T23:48:50.629Z,37.50
2022-12-19T23:53:50.451Z,35.40
2022-12-19T23:58:50.634Z,35.40
